Terminal Aerodrome Forecast
Issued by NWS

Home | Current Version | Previous Version | Text Only | Print | Product List | Glossary On
Versions: 1 2 3 4 5 6 7 8 9 10 11 12 13 14 15 16 17 18 19 20 21
000
FTUS43 KDTX 291700
TAFDET
TAF
KDET 291728Z 2918/3018 25009KT P6SM SCT045 BKN070
     FM292000 27010KT P6SM BKN045 BKN080
      TEMPO 2920/2924 6SM -SHRA BKN035 OVC060
     FM300100 28005KT P6SM SCT060 SCT080 BKN200
     FM301500 26008KT P6SM BKN050 BKN150=

USA.gov is the U.S. government's official web portal to all federal, state and local government web resources and services.